createdAt,value
2022-08-22T00:00:22.147Z,21.00
2022-08-22T00:03:07.261Z,20.99
2022-08-22T00:03:08.204Z,21.18
2022-08-22T00:05:47.969Z,21.09
2022-08-22T00:08:23.360Z,21.25
2022-08-22T00:11:08.702Z,21.08
2022-08-22T00:14:02.230Z,20.93
2022-08-22T00:16:49.713Z,20.91
2022-08-22T00:19:25.944Z,20.77
2022-08-22T00:22:13.477Z,20.74
2022-08-22T00:24:49.071Z,20.83
2022-08-22T00:27:22.315Z,20.85
2022-08-22T00:30:03.968Z,20.84
2022-08-22T00:32:41.004Z,20.77
2022-08-22T00:35:22.693Z,20.93
2022-08-22T00:38:08.349Z,20.93
2022-08-22T00:40:59.453Z,20.83
2022-08-22T00:43:48.903Z,20.86
2022-08-22T00:46:37.123Z,20.90
2022-08-22T00:49:35.997Z,20.73
2022-08-22T00:52:37.410Z,20.61
2022-08-22T00:55:20.386Z,20.50
2022-08-22T00:58:09.592Z,20.41
2022-08-22T01:00:44.725Z,20.55
2022-08-22T01:03:49.334Z,20.49
2022-08-22T01:06:21.564Z,20.34
2022-08-22T01:09:15.181Z,20.29
2022-08-22T01:12:05.367Z,20.21
2022-08-22T01:15:10.101Z,20.16
2022-08-22T01:18:01.444Z,20.13
2022-08-22T01:20:42.024Z,19.92
2022-08-22T01:23:32.997Z,19.82
2022-08-22T01:26:22.558Z,19.92
2022-08-22T01:29:33.268Z,19.90
2022-08-22T01:32:08.520Z,19.75
2022-08-22T01:35:02.655Z,19.67
2022-08-22T01:37:50.877Z,19.79
2022-08-22T01:40:19.947Z,19.88
2022-08-22T01:43:06.114Z,19.91
2022-08-22T01:45:50.256Z,19.61
2022-08-22T01:48:30.720Z,19.63
2022-08-22T01:51:19.927Z,19.42
2022-08-22T01:54:05.588Z,19.43
2022-08-22T01:56:40.003Z,19.16
2022-08-22T01:59:14.938Z,18.96
2022-08-22T02:02:01.077Z,19.02
2022-08-22T02:04:39.488Z,19.05
2022-08-22T02:07:19.392Z,18.88
2022-08-22T02:10:19.270Z,18.84
2022-08-22T02:13:23.137Z,18.71
2022-08-22T02:16:03.603Z,18.66
2022-08-22T02:18:46.296Z,18.51
2022-08-22T02:21:37.349Z,18.53
2022-08-22T02:24:19.187Z,18.43
2022-08-22T02:27:10.829Z,18.41
2022-08-22T02:30:09.879Z,18.57
2022-08-22T02:32:43.574Z,18.47
2022-08-22T02:35:12.682Z,18.32
2022-08-22T02:37:55.202Z,18.40
2022-08-22T02:40:37.711Z,18.29
2022-08-22T02:43:24.058Z,18.16
2022-08-22T02:45:59.532Z,18.04
2022-08-22T02:48:39.015Z,18.01
2022-08-22T02:51:24.296Z,17.94
2022-08-22T02:54:28.368Z,17.80
2022-08-22T02:57:14.226Z,17.65
2022-08-22T03:00:31.447Z,17.84
2022-08-22T03:02:59.242Z,17.74
2022-08-22T03:05:41.865Z,17.77
2022-08-22T03:08:17.092Z,17.56
2022-08-22T03:10:50.486Z,17.48
2022-08-22T03:13:25.856Z,17.46
2022-08-22T03:16:00.490Z,17.22
2022-08-22T03:18:54.627Z,17.22
2022-08-22T03:21:52.163Z,17.26
2022-08-22T03:24:37.406Z,17.10
2022-08-22T03:27:49.463Z,17.01
2022-08-22T03:30:21.595Z,16.98
2022-08-22T03:32:59.461Z,16.85
2022-08-22T03:35:42.154Z,16.79
2022-08-22T03:38:26.933Z,17.07
2022-08-22T03:41:15.223Z,17.15
2022-08-22T03:44:13.244Z,16.85
2022-08-22T03:46:55.789Z,16.93
2022-08-22T03:49:59.382Z,16.74
2022-08-22T03:53:01.253Z,16.67
2022-08-22T03:55:56.704Z,16.66
2022-08-22T03:58:56.446Z,16.63
2022-08-22T04:01:44.627Z,16.56
2022-08-22T04:04:10.988Z,16.59
2022-08-22T04:06:56.556Z,16.69
2022-08-22T04:09:44.049Z,16.43
2022-08-22T04:12:41.299Z,16.45
2022-08-22T04:15:29.767Z,16.39
2022-08-22T04:18:40.594Z,16.39
2022-08-22T04:21:33.108Z,16.18
2022-08-22T04:24:21.104Z,16.08
2022-08-22T04:26:59.793Z,15.93
2022-08-22T04:29:45.183Z,16.71
2022-08-22T04:32:15.054Z,16.50
2022-08-22T04:34:48.639Z,15.99
2022-08-22T04:37:22.942Z,15.79
2022-08-22T04:40:07.371Z,15.80
2022-08-22T04:42:49.847Z,15.72
2022-08-22T04:45:37.571Z,15.84
2022-08-22T04:48:22.613Z,15.62
2022-08-22T04:51:03.202Z,15.85
2022-08-22T04:54:05.555Z,15.66
2022-08-22T04:56:54.741Z,15.79
2022-08-22T04:59:24.103Z,15.84
2022-08-22T05:01:55.103Z,16.06
2022-08-22T05:04:29.146Z,16.02
2022-08-22T05:07:05.898Z,16.06
2022-08-22T05:09:35.807Z,15.96
2022-08-22T05:12:09.098Z,16.18
2022-08-22T05:14:41.115Z,16.64
2022-08-22T05:17:10.657Z,16.76
2022-08-22T05:19:40.592Z,17.34
2022-08-22T05:22:18.703Z,17.79
2022-08-22T05:24:49.661Z,18.38
2022-08-22T05:27:22.035Z,18.81
2022-08-22T05:29:53.705Z,19.24
2022-08-22T05:32:29.122Z,19.47
2022-08-22T05:35:02.048Z,19.82
2022-08-22T05:37:40.431Z,19.91
2022-08-22T05:40:10.715Z,20.27
2022-08-22T05:42:37.556Z,20.58
2022-08-22T05:45:11.575Z,20.49
2022-08-22T05:47:42.907Z,20.53
2022-08-22T05:50:20.212Z,20.81
2022-08-22T05:53:08.787Z,20.70
2022-08-22T05:55:41.599Z,21.00
2022-08-22T05:58:27.010Z,21.09
2022-08-22T06:01:25.378Z,21.09
2022-08-22T06:04:06.912Z,20.93
2022-08-22T06:06:50.873Z,20.76
2022-08-22T06:09:35.425Z,20.99
2022-08-22T06:12:18.237Z,20.86
2022-08-22T06:14:54.804Z,20.63
2022-08-22T06:17:34.864Z,20.61
2022-08-22T06:20:05.679Z,20.72
2022-08-22T06:22:41.709Z,20.74
2022-08-22T06:25:30.325Z,20.59
2022-08-22T06:28:01.558Z,20.58
2022-08-22T06:30:28.880Z,20.47
2022-08-22T06:33:01.313Z,20.79
2022-08-22T06:35:57.426Z,20.69
2022-08-22T06:38:32.325Z,20.80
2022-08-22T06:41:02.952Z,20.62
2022-08-22T06:43:38.480Z,20.94
2022-08-22T06:46:07.294Z,21.05
2022-08-22T06:48:36.138Z,21.38
2022-08-22T06:51:07.013Z,21.45
2022-08-22T06:53:42.365Z,21.80
2022-08-22T06:56:21.591Z,21.73
2022-08-22T06:58:52.165Z,21.96
2022-08-22T07:01:24.424Z,21.52
2022-08-22T07:03:54.266Z,21.54
2022-08-22T07:06:41.188Z,21.62
2022-08-22T07:09:18.524Z,21.80
2022-08-22T07:11:45.460Z,21.75
2022-08-22T07:14:16.066Z,21.93
2022-08-22T07:16:56.661Z,22.08
2022-08-22T07:19:33.110Z,22.07
2022-08-22T07:22:10.414Z,22.54
2022-08-22T07:24:39.700Z,22.42
2022-08-22T07:27:15.930Z,22.59
2022-08-22T07:29:48.112Z,23.08
2022-08-22T07:32:44.574Z,22.77
2022-08-22T07:35:15.930Z,22.69
2022-08-22T07:37:45.073Z,22.81
2022-08-22T07:40:31.900Z,23.07
2022-08-22T07:43:35.779Z,23.51
2022-08-22T07:46:20.878Z,23.55
2022-08-22T07:49:08.001Z,23.70
2022-08-22T07:51:49.587Z,23.97
2022-08-22T07:54:43.850Z,23.97
2022-08-22T07:57:24.855Z,24.33
2022-08-22T07:59:54.232Z,24.10
2022-08-22T08:02:22.008Z,24.08
2022-08-22T08:04:51.431Z,24.35
2022-08-22T08:07:22.370Z,24.49
2022-08-22T08:10:14.273Z,24.72
2022-08-22T08:12:56.128Z,24.80
2022-08-22T08:15:30.357Z,24.76
2022-08-22T08:18:02.857Z,25.10
2022-08-22T08:20:30.337Z,25.51
2022-08-22T08:22:58.467Z,25.46
2022-08-22T08:25:31.738Z,25.30
2022-08-22T08:28:18.261Z,25.21
2022-08-22T08:30:56.429Z,25.83
2022-08-22T08:33:28.082Z,25.72
2022-08-22T08:36:05.690Z,25.46
2022-08-22T08:38:51.219Z,25.40
2022-08-22T08:41:44.244Z,26.06
2022-08-22T08:44:52.686Z,25.96
2022-08-22T08:47:27.822Z,26.12
2022-08-22T08:50:15.434Z,26.35
2022-08-22T08:53:31.392Z,25.86
2022-08-22T08:56:06.491Z,26.14
2022-08-22T08:58:47.768Z,26.56
2022-08-22T09:01:38.056Z,26.36
2022-08-22T09:04:29.940Z,26.54
2022-08-22T09:07:02.535Z,26.62
2022-08-22T09:10:08.373Z,27.02
2022-08-22T09:13:00.322Z,26.70
2022-08-22T09:16:05.230Z,27.09
2022-08-22T09:18:58.991Z,27.44
2022-08-22T09:21:33.611Z,27.27
2022-08-22T09:24:12.899Z,27.54
2022-08-22T09:27:08.680Z,27.71
2022-08-22T09:29:54.941Z,27.94
2022-08-22T09:32:52.409Z,27.87
2022-08-22T09:35:39.987Z,27.44
2022-08-22T09:38:25.745Z,27.41
2022-08-22T09:40:57.906Z,27.84
2022-08-22T09:43:44.724Z,28.03
2022-08-22T09:46:54.106Z,27.60
2022-08-22T09:49:34.771Z,28.10
2022-08-22T09:52:32.044Z,27.67
2022-08-22T09:55:11.731Z,27.67
2022-08-22T09:57:52.771Z,28.33
2022-08-22T10:00:22.705Z,28.34
2022-08-22T10:03:11.216Z,28.18
2022-08-22T10:05:48.257Z,27.86
2022-08-22T10:08:39.143Z,27.67
2022-08-22T10:11:08.409Z,27.88
2022-08-22T10:13:40.433Z,27.98
2022-08-22T10:16:20.385Z,28.22
2022-08-22T10:19:10.849Z,28.89
2022-08-22T10:22:10.450Z,28.65
2022-08-22T10:24:51.275Z,28.58
2022-08-22T10:27:28.965Z,28.47
2022-08-22T10:30:25.571Z,28.90
2022-08-22T10:33:09.467Z,29.30
2022-08-22T10:35:50.935Z,29.35
2022-08-22T10:38:25.033Z,28.77
2022-08-22T10:41:09.314Z,29.06
2022-08-22T10:43:56.568Z,29.68
2022-08-22T10:46:51.172Z,29.08
2022-08-22T10:49:51.150Z,29.13
2022-08-22T10:52:48.115Z,28.70
2022-08-22T10:55:25.530Z,28.62
2022-08-22T10:58:10.935Z,28.71
2022-08-22T11:00:46.101Z,29.38
2022-08-22T11:03:27.506Z,29.70
2022-08-22T11:06:27.934Z,29.99
2022-08-22T11:09:31.172Z,30.39
2022-08-22T11:12:19.721Z,30.49
2022-08-22T11:14:46.044Z,29.98
2022-08-22T11:17:54.419Z,29.93
2022-08-22T11:20:58.337Z,29.86
2022-08-22T11:23:42.511Z,30.04
2022-08-22T11:26:33.788Z,30.00
2022-08-22T11:29:13.966Z,29.78
2022-08-22T11:32:00.429Z,29.91
2022-08-22T11:34:34.189Z,30.26
2022-08-22T11:37:43.383Z,30.14
2022-08-22T11:40:26.914Z,30.22
2022-08-22T11:43:07.297Z,29.76
2022-08-22T11:45:51.840Z,30.01
2022-08-22T11:48:26.626Z,30.28
2022-08-22T11:51:16.582Z,30.49
2022-08-22T11:54:07.488Z,30.45
2022-08-22T11:56:48.957Z,30.84
2022-08-22T11:59:32.547Z,31.07
2022-08-22T12:02:08.830Z,31.13
2022-08-22T12:04:42.577Z,31.21
2022-08-22T12:07:28.767Z,31.27
2022-08-22T12:09:59.498Z,31.08
2022-08-22T12:12:44.174Z,31.07
2022-08-22T12:15:21.343Z,31.56
2022-08-22T12:18:19.926Z,31.24
2022-08-22T12:21:18.746Z,31.34
2022-08-22T12:24:11.186Z,30.99
2022-08-22T12:26:56.647Z,30.52
2022-08-22T12:29:48.455Z,30.71
2022-08-22T12:32:34.122Z,30.36
2022-08-22T12:35:30.099Z,30.71
2022-08-22T12:38:28.692Z,31.23
2022-08-22T12:41:28.391Z,30.75
2022-08-22T12:44:28.533Z,31.06
2022-08-22T12:47:13.231Z,31.33
2022-08-22T12:50:17.547Z,31.42
2022-08-22T12:53:00.593Z,31.27
2022-08-22T12:55:40.825Z,31.43
2022-08-22T12:58:33.900Z,31.35
2022-08-22T13:01:06.266Z,31.36
2022-08-22T13:03:43.980Z,30.96
2022-08-22T13:06:35.197Z,30.66
2022-08-22T13:09:18.526Z,30.22
2022-08-22T13:11:48.284Z,30.52
2022-08-22T13:14:25.631Z,30.53
2022-08-22T13:16:58.882Z,30.45
2022-08-22T13:19:44.297Z,30.48
2022-08-22T13:22:17.747Z,30.59
2022-08-22T13:24:56.655Z,30.75
2022-08-22T13:27:51.207Z,30.64
2022-08-22T13:30:26.607Z,30.78
2022-08-22T13:33:03.295Z,30.92
2022-08-22T13:35:41.450Z,31.17
2022-08-22T13:38:17.670Z,31.34
2022-08-22T13:40:54.047Z,31.23
2022-08-22T13:43:30.050Z,31.47
2022-08-22T13:46:06.619Z,31.74
2022-08-22T13:48:50.569Z,31.83
2022-08-22T13:51:24.753Z,32.05
2022-08-22T13:54:20.702Z,31.71
2022-08-22T13:57:08.766Z,32.09
2022-08-22T13:59:52.544Z,32.05
2022-08-22T14:02:34.098Z,31.09
2022-08-22T14:05:06.795Z,31.16
2022-08-22T14:07:38.703Z,30.73
2022-08-22T14:10:14.817Z,31.23
2022-08-22T14:12:53.353Z,30.92
2022-08-22T14:15:25.894Z,30.85
2022-08-22T14:18:09.034Z,31.30
2022-08-22T14:20:39.561Z,31.04
2022-08-22T14:23:16.275Z,31.04
2022-08-22T14:25:43.637Z,31.01
2022-08-22T14:28:22.224Z,30.93
2022-08-22T14:31:03.581Z,30.89
2022-08-22T14:33:46.792Z,31.09
2022-08-22T14:36:28.811Z,30.93
2022-08-22T14:39:06.982Z,31.09
2022-08-22T14:41:52.621Z,31.24
2022-08-22T14:44:32.370Z,31.72
2022-08-22T14:47:04.274Z,31.57
2022-08-22T14:49:49.227Z,31.67
2022-08-22T14:52:40.573Z,31.81
2022-08-22T14:55:26.353Z,31.49
2022-08-22T14:58:03.394Z,31.83
2022-08-22T15:00:33.224Z,31.52
2022-08-22T15:03:22.338Z,31.59
2022-08-22T15:06:14.564Z,31.16
2022-08-22T15:08:46.262Z,30.80
2022-08-22T15:11:22.149Z,30.63
2022-08-22T15:13:55.282Z,30.70
2022-08-22T15:16:29.279Z,30.51
2022-08-22T15:18:55.835Z,30.53
2022-08-22T15:21:26.056Z,30.45
2022-08-22T15:23:56.146Z,30.42
2022-08-22T15:26:26.830Z,30.58
2022-08-22T15:29:08.807Z,30.82
2022-08-22T15:31:39.755Z,30.64
2022-08-22T15:34:21.486Z,30.13
2022-08-22T15:37:08.310Z,30.40
2022-08-22T15:39:59.964Z,30.08
2022-08-22T15:42:57.083Z,30.11
2022-08-22T15:45:37.660Z,30.00
2022-08-22T15:48:09.840Z,30.22
2022-08-22T15:50:55.884Z,30.11
2022-08-22T15:53:29.301Z,29.74
2022-08-22T15:56:25.934Z,29.98
2022-08-22T15:59:18.196Z,29.98
2022-08-22T16:01:52.334Z,30.08
2022-08-22T16:04:34.166Z,29.90
2022-08-22T16:07:02.783Z,29.91
2022-08-22T16:09:46.254Z,29.74
2022-08-22T16:12:31.661Z,29.88
2022-08-22T16:15:00.423Z,29.91
2022-08-22T16:17:29.608Z,29.88
2022-08-22T16:20:22.021Z,29.77
2022-08-22T16:23:08.907Z,29.93
2022-08-22T16:25:44.400Z,30.09
2022-08-22T16:28:56.239Z,29.93
2022-08-22T16:31:41.466Z,30.00
2022-08-22T16:34:16.804Z,29.95
2022-08-22T16:36:49.360Z,29.84
2022-08-22T16:39:21.900Z,29.95
2022-08-22T16:42:14.408Z,30.05
2022-08-22T16:44:40.745Z,30.01
2022-08-22T16:47:15.764Z,30.02
2022-08-22T16:49:51.372Z,29.94
2022-08-22T16:52:20.944Z,30.02
2022-08-22T16:54:49.673Z,29.91
2022-08-22T16:57:22.257Z,30.03
2022-08-22T17:00:12.189Z,29.96
2022-08-22T17:03:05.954Z,30.05
2022-08-22T17:05:53.558Z,30.04
2022-08-22T17:08:35.322Z,29.98
2022-08-22T17:11:14.081Z,30.08
2022-08-22T17:14:02.342Z,30.13
2022-08-22T17:16:53.876Z,30.13
2022-08-22T17:19:24.552Z,30.15
2022-08-22T17:21:56.216Z,29.79
2022-08-22T17:24:33.984Z,29.87
2022-08-22T17:27:06.848Z,29.93
2022-08-22T17:30:13.493Z,29.81
2022-08-22T17:33:01.061Z,29.78
2022-08-22T17:35:33.637Z,29.70
2022-08-22T17:38:00.194Z,29.66
2022-08-22T17:40:56.301Z,29.76
2022-08-22T17:43:26.972Z,29.56
2022-08-22T17:46:07.155Z,29.53
2022-08-22T17:48:53.537Z,29.39
2022-08-22T17:51:41.362Z,29.38
2022-08-22T17:54:13.568Z,29.22
2022-08-22T17:57:05.262Z,29.37
2022-08-22T17:59:38.671Z,29.30
2022-08-22T18:02:39.344Z,29.18
2022-08-22T18:05:19.181Z,28.98
2022-08-22T18:08:02.263Z,29.07
2022-08-22T18:10:50.122Z,28.97
2022-08-22T18:13:32.021Z,28.82
2022-08-22T18:16:03.813Z,28.61
2022-08-22T18:18:49.527Z,28.65
2022-08-22T18:21:22.474Z,28.56
2022-08-22T18:23:55.748Z,28.41
2022-08-22T18:26:34.847Z,28.31
2022-08-22T18:29:17.668Z,28.16
2022-08-22T18:32:11.159Z,27.86
2022-08-22T18:34:56.504Z,27.49
2022-08-22T18:37:44.957Z,27.56
2022-08-22T18:40:23.252Z,26.90
2022-08-22T18:43:15.099Z,26.81
2022-08-22T18:45:47.540Z,26.49
2022-08-22T18:49:05.338Z,26.24
2022-08-22T18:51:38.371Z,26.22
2022-08-22T18:54:04.999Z,26.21
2022-08-22T18:56:31.326Z,26.01
2022-08-22T18:59:09.658Z,25.92
2022-08-22T19:01:44.611Z,25.97
2022-08-22T19:04:26.167Z,25.84
2022-08-22T19:07:23.271Z,25.77
2022-08-22T19:10:20.572Z,25.60
2022-08-22T19:13:01.986Z,25.52
2022-08-22T19:15:53.019Z,25.61
2022-08-22T19:18:36.214Z,25.75
2022-08-22T19:21:33.235Z,25.59
2022-08-22T19:24:00.321Z,25.54
2022-08-22T19:26:36.259Z,25.29
2022-08-22T19:29:25.593Z,25.31
2022-08-22T19:31:54.564Z,25.21
2022-08-22T19:34:32.009Z,25.16
2022-08-22T19:37:32.300Z,25.28
2022-08-22T19:40:07.814Z,25.09
2022-08-22T19:42:38.058Z,25.01
2022-08-22T19:45:20.199Z,25.37
2022-08-22T19:47:56.829Z,25.23
2022-08-22T19:50:23.478Z,25.28
2022-08-22T19:53:24.325Z,25.32
2022-08-22T19:56:15.378Z,25.30
2022-08-22T19:59:06.700Z,25.31
2022-08-22T20:01:58.129Z,25.23
2022-08-22T20:04:48.729Z,25.21
2022-08-22T20:07:45.518Z,25.13
2022-08-22T20:10:42.420Z,25.10
2022-08-22T20:13:24.475Z,25.05
2022-08-22T20:16:19.711Z,24.95
2022-08-22T20:19:05.503Z,25.32
2022-08-22T20:21:50.977Z,24.84
2022-08-22T20:24:42.570Z,24.48
2022-08-22T20:27:22.903Z,24.63
2022-08-22T20:29:55.349Z,24.45
2022-08-22T20:32:24.378Z,24.37
2022-08-22T20:34:55.236Z,24.11
2022-08-22T20:37:40.181Z,24.31
2022-08-22T20:40:54.868Z,23.91
2022-08-22T20:43:31.653Z,23.87
2022-08-22T20:46:18.897Z,23.76
2022-08-22T20:48:47.673Z,23.69
2022-08-22T20:51:17.721Z,23.79
2022-08-22T20:53:55.720Z,23.56
2022-08-22T20:56:52.791Z,23.57
2022-08-22T20:59:37.324Z,23.37
2022-08-22T21:02:10.440Z,23.27
2022-08-22T21:05:02.683Z,23.31
2022-08-22T21:07:51.382Z,23.33
2022-08-22T21:10:46.587Z,23.16
2022-08-22T21:13:47.004Z,22.96
2022-08-22T21:16:20.469Z,22.93
2022-08-22T21:18:53.070Z,22.84
2022-08-22T21:21:25.608Z,22.77
2022-08-22T21:24:01.482Z,22.50
2022-08-22T21:26:36.432Z,22.48
2022-08-22T21:29:05.681Z,22.49
2022-08-22T21:32:04.696Z,22.57
2022-08-22T21:34:36.496Z,22.56
2022-08-22T21:37:12.414Z,22.51
2022-08-22T21:39:45.812Z,22.41
2022-08-22T21:42:37.120Z,22.13
2022-08-22T21:45:07.679Z,21.92
2022-08-22T21:47:37.360Z,21.70
2022-08-22T21:50:12.809Z,21.54
2022-08-22T21:52:59.707Z,21.70
2022-08-22T21:55:34.575Z,21.44
2022-08-22T21:58:04.658Z,21.59
2022-08-22T22:00:54.694Z,21.47
2022-08-22T22:03:29.611Z,21.41
2022-08-22T22:06:01.460Z,21.32
2022-08-22T22:08:29.945Z,21.25
2022-08-22T22:11:01.122Z,21.54
2022-08-22T22:13:31.404Z,21.63
2022-08-22T22:15:58.067Z,21.52
2022-08-22T22:18:27.136Z,21.51
2022-08-22T22:20:54.722Z,21.42
2022-08-22T22:23:22.409Z,21.26
2022-08-22T22:25:49.629Z,21.28
2022-08-22T22:28:21.614Z,21.31
2022-08-22T22:30:51.346Z,21.10
2022-08-22T22:33:23.438Z,20.90
2022-08-22T22:35:52.130Z,21.03
2022-08-22T22:38:23.764Z,20.94
2022-08-22T22:40:50.898Z,21.06
2022-08-22T22:43:17.327Z,21.01
2022-08-22T22:45:43.845Z,20.58
2022-08-22T22:48:10.303Z,20.81
2022-08-22T22:50:40.613Z,20.83
2022-08-22T22:53:08.032Z,20.70
2022-08-22T22:55:36.973Z,21.11
2022-08-22T22:58:08.139Z,20.97
2022-08-22T23:00:36.987Z,21.06
2022-08-22T23:03:05.867Z,21.06
2022-08-22T23:05:33.107Z,21.04
2022-08-22T23:08:00.735Z,21.05
2022-08-22T23:10:28.704Z,20.92
2022-08-22T23:12:55.323Z,20.83
2022-08-22T23:15:21.790Z,20.88
2022-08-22T23:17:48.482Z,20.92
2022-08-22T23:20:14.950Z,21.00
2022-08-22T23:22:42.875Z,20.73
2022-08-22T23:25:09.480Z,20.72
2022-08-22T23:27:36.564Z,20.67
2022-08-22T23:30:04.972Z,20.59
2022-08-22T23:32:31.419Z,20.36
2022-08-22T23:34:58.058Z,20.30
2022-08-22T23:37:24.595Z,20.19
2022-08-22T23:39:51.090Z,20.23
2022-08-22T23:42:18.143Z,19.94
2022-08-22T23:44:45.783Z,20.13
2022-08-22T23:47:13.621Z,19.94
2022-08-22T23:49:41.483Z,20.14
2022-08-22T23:52:09.681Z,20.08
2022-08-22T23:54:36.387Z,20.36
2022-08-22T23:57:11.798Z,20.44
2022-08-22T23:59:46.375Z,20.40
